sensor_id;sensor_type;location;lat;lon;timestamp;P1;durP1;ratioP1;P2;durP2;ratioP2
17614;SDS011;8926;49.720;6.576;2022-11-06T00:01:46;5.50;;;2.90;;
17614;SDS011;8926;49.720;6.576;2022-11-06T00:04:11;3.53;;;3.23;;
17614;SDS011;8926;49.720;6.576;2022-11-06T00:06:37;3.10;;;2.80;;
17614;SDS011;8926;49.720;6.576;2022-11-06T00:09:17;5.33;;;2.90;;
17614;SDS011;8926;49.720;6.576;2022-11-06T00:11:44;6.10;;;3.27;;
17614;SDS011;8926;49.720;6.576;2022-11-06T00:14:11;4.77;;;3.10;;
17614;SDS011;8926;49.720;6.576;2022-11-06T00:16:37;2.60;;;2.40;;
17614;SDS011;8926;49.720;6.576;2022-11-06T00:19:04;4.73;;;2.87;;
17614;SDS011;8926;49.720;6.576;2022-11-06T00:21:30;2.73;;;2.53;;
17614;SDS011;8926;49.720;6.576;2022-11-06T00:23:56;3.27;;;2.93;;
17614;SDS011;8926;49.720;6.576;2022-11-06T00:26:24;3.37;;;2.87;;
17614;SDS011;8926;49.720;6.576;2022-11-06T00:28:51;2.27;;;2.17;;
17614;SDS011;8926;49.720;6.576;2022-11-06T00:31:19;4.13;;;2.73;;
17614;SDS011;8926;49.720;6.576;2022-11-06T00:33:45;3.70;;;3.07;;
17614;SDS011;8926;49.720;6.576;2022-11-06T00:36:14;3.70;;;3.40;;
17614;SDS011;8926;49.720;6.576;2022-11-06T00:38:40;4.30;;;3.20;;
17614;SDS011;8926;49.720;6.576;2022-11-06T00:41:07;3.40;;;3.10;;
17614;SDS011;8926;49.720;6.576;2022-11-06T00:43:35;6.53;;;4.17;;
17614;SDS011;8926;49.720;6.576;2022-11-06T00:48:27;3.77;;;3.27;;
17614;SDS011;8926;49.720;6.576;2022-11-06T00:50:52;5.03;;;3.53;;
17614;SDS011;8926;49.720;6.576;2022-11-06T00:53:17;7.67;;;4.20;;
17614;SDS011;8926;49.720;6.576;2022-11-06T00:55:43;5.10;;;4.13;;
17614;SDS011;8926;49.720;6.576;2022-11-06T00:58:08;5.00;;;3.93;;
17614;SDS011;8926;49.720;6.576;2022-11-06T01:00:33;4.10;;;3.73;;
17614;SDS011;8926;49.720;6.576;2022-11-06T01:02:58;6.27;;;4.20;;
17614;SDS011;8926;49.720;6.576;2022-11-06T01:05:24;5.03;;;4.63;;
17614;SDS011;8926;49.720;6.576;2022-11-06T01:07:49;6.60;;;5.00;;
17614;SDS011;8926;49.720;6.576;2022-11-06T01:10:14;5.57;;;4.47;;
17614;SDS011;8926;49.720;6.576;2022-11-06T01:12:40;4.30;;;3.90;;
17614;SDS011;8926;49.720;6.576;2022-11-06T01:15:05;4.40;;;4.00;;
17614;SDS011;8926;49.720;6.576;2022-11-06T01:17:31;4.47;;;3.80;;
17614;SDS011;8926;49.720;6.576;2022-11-06T01:19:56;4.97;;;3.90;;
17614;SDS011;8926;49.720;6.576;2022-11-06T01:22:21;3.70;;;3.40;;
17614;SDS011;8926;49.720;6.576;2022-11-06T01:24:46;3.97;;;3.67;;
17614;SDS011;8926;49.720;6.576;2022-11-06T01:27:12;5.10;;;4.00;;
17614;SDS011;8926;49.720;6.576;2022-11-06T01:29:37;4.50;;;4.10;;
17614;SDS011;8926;49.720;6.576;2022-11-06T01:32:02;4.63;;;4.20;;
17614;SDS011;8926;49.720;6.576;2022-11-06T01:34:28;3.77;;;3.47;;
17614;SDS011;8926;49.720;6.576;2022-11-06T01:36:53;4.37;;;3.73;;
17614;SDS011;8926;49.720;6.576;2022-11-06T01:39:18;4.40;;;4.00;;
17614;SDS011;8926;49.720;6.576;2022-11-06T01:41:45;3.93;;;3.53;;
17614;SDS011;8926;49.720;6.576;2022-11-06T01:46:55;4.17;;;3.73;;
17614;SDS011;8926;49.720;6.576;2022-11-06T01:49:21;9.17;;;4.70;;
17614;SDS011;8926;49.720;6.576;2022-11-06T01:51:48;4.03;;;3.70;;
17614;SDS011;8926;49.720;6.576;2022-11-06T01:54:17;3.93;;;3.63;;
17614;SDS011;8926;49.720;6.576;2022-11-06T01:56:45;3.50;;;3.20;;
17614;SDS011;8926;49.720;6.576;2022-11-06T01:59:14;4.40;;;4.10;;
17614;SDS011;8926;49.720;6.576;2022-11-06T02:01:41;4.43;;;4.03;;
17614;SDS011;8926;49.720;6.576;2022-11-06T02:04:08;3.83;;;3.53;;
17614;SDS011;8926;49.720;6.576;2022-11-06T02:06:38;3.87;;;3.57;;
17614;SDS011;8926;49.720;6.576;2022-11-06T02:09:04;3.70;;;3.43;;
17614;SDS011;8926;49.720;6.576;2022-11-06T02:11:35;4.47;;;4.10;;
17614;SDS011;8926;49.720;6.576;2022-11-06T02:14:26;4.80;;;4.40;;
17614;SDS011;8926;49.720;6.576;2022-11-06T02:20:02;4.57;;;4.17;;
17614;SDS011;8926;49.720;6.576;2022-11-06T02:25:49;6.77;;;5.00;;
17614;SDS011;8926;49.720;6.576;2022-11-06T02:28:05;4.83;;;4.33;;
17614;SDS011;8926;49.720;6.576;2022-11-06T02:30:39;4.53;;;3.70;;
17614;SDS011;8926;49.720;6.576;2022-11-06T02:33:09;4.07;;;3.77;;
17614;SDS011;8926;49.720;6.576;2022-11-06T02:35:41;3.20;;;3.00;;
17614;SDS011;8926;49.720;6.576;2022-11-06T02:38:12;3.77;;;3.47;;
17614;SDS011;8926;49.720;6.576;2022-11-06T02:40:41;4.27;;;3.70;;
17614;SDS011;8926;49.720;6.576;2022-11-06T02:43:12;3.57;;;3.27;;
17614;SDS011;8926;49.720;6.576;2022-11-06T02:45:41;3.80;;;3.20;;
17614;SDS011;8926;49.720;6.576;2022-11-06T02:48:11;3.00;;;2.80;;
17614;SDS011;8926;49.720;6.576;2022-11-06T02:50:42;5.10;;;3.57;;
17614;SDS011;8926;49.720;6.576;2022-11-06T02:53:11;4.30;;;3.20;;
17614;SDS011;8926;49.720;6.576;2022-11-06T02:55:45;3.93;;;3.37;;
17614;SDS011;8926;49.720;6.576;2022-11-06T02:58:13;3.20;;;3.00;;
17614;SDS011;8926;49.720;6.576;2022-11-06T03:00:47;4.70;;;3.40;;
17614;SDS011;8926;49.720;6.576;2022-11-06T03:03:22;4.73;;;4.43;;
17614;SDS011;8926;49.720;6.576;2022-11-06T03:05:54;4.40;;;4.10;;
17614;SDS011;8926;49.720;6.576;2022-11-06T03:11:10;5.03;;;4.53;;
17614;SDS011;8926;49.720;6.576;2022-11-06T03:13:45;5.73;;;5.17;;
17614;SDS011;8926;49.720;6.576;2022-11-06T03:22:00;5.07;;;4.67;;
17614;SDS011;8926;49.720;6.576;2022-11-06T03:27:37;4.40;;;4.10;;
17614;SDS011;8926;49.720;6.576;2022-11-06T03:30:11;4.27;;;3.87;;
17614;SDS011;8926;49.720;6.576;2022-11-06T03:35:41;4.90;;;4.50;;
17614;SDS011;8926;49.720;6.576;2022-11-06T03:38:16;3.80;;;3.50;;
17614;SDS011;8926;49.720;6.576;2022-11-06T03:40:52;3.90;;;3.60;;
17614;SDS011;8926;49.720;6.576;2022-11-06T03:43:24;4.27;;;3.87;;
17614;SDS011;8926;49.720;6.576;2022-11-06T03:45:52;4.60;;;4.30;;
17614;SDS011;8926;49.720;6.576;2022-11-06T03:48:28;4.87;;;4.47;;
17614;SDS011;8926;49.720;6.576;2022-11-06T03:53:51;6.53;;;5.80;;
17614;SDS011;8926;49.720;6.576;2022-11-06T03:56:29;4.93;;;4.60;;
17614;SDS011;8926;49.720;6.576;2022-11-06T03:59:04;5.20;;;4.80;;
17614;SDS011;8926;49.720;6.576;2022-11-06T04:01:34;4.90;;;4.60;;
17614;SDS011;8926;49.720;6.576;2022-11-06T04:04:13;6.17;;;5.63;;
17614;SDS011;8926;49.720;6.576;2022-11-06T04:06:51;5.60;;;5.20;;
17614;SDS011;8926;49.720;6.576;2022-11-06T04:09:20;5.97;;;5.40;;
17614;SDS011;8926;49.720;6.576;2022-11-06T04:12:07;5.17;;;4.87;;
17614;SDS011;8926;49.720;6.576;2022-11-06T04:14:56;5.03;;;4.63;;
17614;SDS011;8926;49.720;6.576;2022-11-06T04:17:23;4.40;;;4.00;;
17614;SDS011;8926;49.720;6.576;2022-11-06T04:19:53;3.53;;;3.33;;
17614;SDS011;8926;49.720;6.576;2022-11-06T04:22:27;4.57;;;4.27;;
17614;SDS011;8926;49.720;6.576;2022-11-06T04:25:10;4.47;;;4.07;;
17614;SDS011;8926;49.720;6.576;2022-11-06T04:28:31;4.53;;;4.13;;
17614;SDS011;8926;49.720;6.576;2022-11-06T04:31:05;4.93;;;4.53;;
17614;SDS011;8926;49.720;6.576;2022-11-06T04:33:49;4.63;;;4.23;;
17614;SDS011;8926;49.720;6.576;2022-11-06T04:39:03;5.00;;;4.60;;
17614;SDS011;8926;49.720;6.576;2022-11-06T04:41:40;4.80;;;4.50;;
17614;SDS011;8926;49.720;6.576;2022-11-06T04:44:26;4.13;;;3.83;;
17614;SDS011;8926;49.720;6.576;2022-11-06T04:46:59;4.20;;;3.90;;
17614;SDS011;8926;49.720;6.576;2022-11-06T04:49:30;4.23;;;3.93;;
17614;SDS011;8926;49.720;6.576;2022-11-06T04:51:58;4.47;;;4.07;;
17614;SDS011;8926;49.720;6.576;2022-11-06T04:54:25;5.33;;;4.93;;
17614;SDS011;8926;49.720;6.576;2022-11-06T04:56:51;5.30;;;4.90;;
17614;SDS011;8926;49.720;6.576;2022-11-06T04:59:22;4.83;;;4.50;;
17614;SDS011;8926;49.720;6.576;2022-11-06T05:01:48;5.93;;;5.47;;
17614;SDS011;8926;49.720;6.576;2022-11-06T05:04:13;5.03;;;4.67;;
17614;SDS011;8926;49.720;6.576;2022-11-06T05:06:38;5.40;;;5.00;;
17614;SDS011;8926;49.720;6.576;2022-11-06T05:09:03;4.17;;;3.87;;
17614;SDS011;8926;49.720;6.576;2022-11-06T05:11:29;4.70;;;4.37;;
17614;SDS011;8926;49.720;6.576;2022-11-06T05:13:54;4.53;;;4.23;;
17614;SDS011;8926;49.720;6.576;2022-11-06T05:16:19;4.97;;;4.47;;
17614;SDS011;8926;49.720;6.576;2022-11-06T05:18:44;4.23;;;3.93;;
17614;SDS011;8926;49.720;6.576;2022-11-06T05:21:10;4.00;;;3.73;;
17614;SDS011;8926;49.720;6.576;2022-11-06T05:23:54;4.37;;;4.07;;
17614;SDS011;8926;49.720;6.576;2022-11-06T05:26:19;4.13;;;3.83;;
17614;SDS011;8926;49.720;6.576;2022-11-06T05:28:44;4.43;;;4.13;;
17614;SDS011;8926;49.720;6.576;2022-11-06T05:31:09;4.80;;;4.50;;
17614;SDS011;8926;49.720;6.576;2022-11-06T05:33:35;5.00;;;4.60;;
17614;SDS011;8926;49.720;6.576;2022-11-06T05:36:01;4.43;;;4.10;;
17614;SDS011;8926;49.720;6.576;2022-11-06T05:38:30;5.57;;;5.07;;
17614;SDS011;8926;49.720;6.576;2022-11-06T05:40:55;6.13;;;5.53;;
17614;SDS011;8926;49.720;6.576;2022-11-06T05:43:20;6.30;;;5.80;;
17614;SDS011;8926;49.720;6.576;2022-11-06T05:45:46;6.27;;;5.67;;
17614;SDS011;8926;49.720;6.576;2022-11-06T05:48:11;6.33;;;5.83;;
17614;SDS011;8926;49.720;6.576;2022-11-06T05:50:36;6.00;;;5.50;;
17614;SDS011;8926;49.720;6.576;2022-11-06T05:53:02;5.07;;;4.67;;
17614;SDS011;8926;49.720;6.576;2022-11-06T05:55:27;6.43;;;5.93;;
17614;SDS011;8926;49.720;6.576;2022-11-06T05:57:53;6.30;;;5.80;;
17614;SDS011;8926;49.720;6.576;2022-11-06T06:00:18;4.93;;;4.53;;
17614;SDS011;8926;49.720;6.576;2022-11-06T06:02:43;5.67;;;5.27;;
17614;SDS011;8926;49.720;6.576;2022-11-06T06:05:09;4.87;;;4.47;;
17614;SDS011;8926;49.720;6.576;2022-11-06T06:07:34;5.90;;;5.37;;
17614;SDS011;8926;49.720;6.576;2022-11-06T06:10:00;6.20;;;5.70;;
17614;SDS011;8926;49.720;6.576;2022-11-06T06:12:25;5.10;;;4.70;;
17614;SDS011;8926;49.720;6.576;2022-11-06T06:14:51;5.70;;;5.20;;
17614;SDS011;8926;49.720;6.576;2022-11-06T06:17:17;4.17;;;3.87;;
17614;SDS011;8926;49.720;6.576;2022-11-06T06:19:43;5.30;;;4.90;;
17614;SDS011;8926;49.720;6.576;2022-11-06T06:22:08;5.83;;;5.33;;
17614;SDS011;8926;49.720;6.576;2022-11-06T06:24:33;5.93;;;5.47;;
17614;SDS011;8926;49.720;6.576;2022-11-06T06:26:59;5.60;;;5.20;;
17614;SDS011;8926;49.720;6.576;2022-11-06T06:29:24;7.10;;;6.40;;
17614;SDS011;8926;49.720;6.576;2022-11-06T06:31:50;7.93;;;4.70;;
17614;SDS011;8926;49.720;6.576;2022-11-06T06:34:15;6.70;;;6.07;;
17614;SDS011;8926;49.720;6.576;2022-11-06T06:36:40;5.70;;;5.17;;
17614;SDS011;8926;49.720;6.576;2022-11-06T06:39:06;4.93;;;4.53;;
17614;SDS011;8926;49.720;6.576;2022-11-06T06:41:31;5.03;;;4.53;;
17614;SDS011;8926;49.720;6.576;2022-11-06T06:43:57;5.50;;;5.00;;
17614;SDS011;8926;49.720;6.576;2022-11-06T06:46:22;5.47;;;4.93;;
17614;SDS011;8926;49.720;6.576;2022-11-06T06:48:48;5.13;;;4.73;;
17614;SDS011;8926;49.720;6.576;2022-11-06T06:51:13;6.63;;;5.30;;
17614;SDS011;8926;49.720;6.576;2022-11-06T06:53:38;4.67;;;4.27;;
17614;SDS011;8926;49.720;6.576;2022-11-06T06:56:03;5.03;;;4.50;;
17614;SDS011;8926;49.720;6.576;2022-11-06T06:58:29;4.87;;;4.47;;
17614;SDS011;8926;49.720;6.576;2022-11-06T07:00:58;4.23;;;3.93;;
17614;SDS011;8926;49.720;6.576;2022-11-06T07:03:26;4.20;;;3.90;;
17614;SDS011;8926;49.720;6.576;2022-11-06T07:05:51;4.77;;;4.37;;
17614;SDS011;8926;49.720;6.576;2022-11-06T07:08:17;5.77;;;5.27;;
17614;SDS011;8926;49.720;6.576;2022-11-06T07:10:42;6.53;;;5.93;;
17614;SDS011;8926;49.720;6.576;2022-11-06T07:13:07;5.57;;;5.17;;
17614;SDS011;8926;49.720;6.576;2022-11-06T07:15:33;6.27;;;5.50;;
17614;SDS011;8926;49.720;6.576;2022-11-06T07:18:02;5.93;;;5.43;;
17614;SDS011;8926;49.720;6.576;2022-11-06T07:20:29;6.30;;;5.77;;
17614;SDS011;8926;49.720;6.576;2022-11-06T07:22:54;5.50;;;5.07;;
17614;SDS011;8926;49.720;6.576;2022-11-06T07:25:20;4.60;;;4.30;;
17614;SDS011;8926;49.720;6.576;2022-11-06T07:27:45;4.03;;;3.70;;
17614;SDS011;8926;49.720;6.576;2022-11-06T07:30:10;3.87;;;3.60;;
17614;SDS011;8926;49.720;6.576;2022-11-06T07:32:36;3.47;;;3.27;;
17614;SDS011;8926;49.720;6.576;2022-11-06T07:35:01;4.47;;;4.07;;
17614;SDS011;8926;49.720;6.576;2022-11-06T07:37:27;4.90;;;4.50;;
17614;SDS011;8926;49.720;6.576;2022-11-06T07:39:52;7.00;;;6.37;;
17614;SDS011;8926;49.720;6.576;2022-11-06T07:42:17;8.07;;;7.37;;
17614;SDS011;8926;49.720;6.576;2022-11-06T07:44:43;6.70;;;6.20;;
17614;SDS011;8926;49.720;6.576;2022-11-06T07:47:08;6.47;;;5.90;;
17614;SDS011;8926;49.720;6.576;2022-11-06T07:49:33;6.20;;;5.70;;
17614;SDS011;8926;49.720;6.576;2022-11-06T07:51:58;6.80;;;6.20;;
17614;SDS011;8926;49.720;6.576;2022-11-06T07:54:24;7.43;;;6.73;;
17614;SDS011;8926;49.720;6.576;2022-11-06T07:56:49;8.93;;;7.40;;
17614;SDS011;8926;49.720;6.576;2022-11-06T07:59:14;8.80;;;7.43;;
17614;SDS011;8926;49.720;6.576;2022-11-06T08:01:40;6.27;;;5.77;;
17614;SDS011;8926;49.720;6.576;2022-11-06T08:04:05;6.90;;;6.33;;
17614;SDS011;8926;49.720;6.576;2022-11-06T08:06:30;5.80;;;5.30;;
17614;SDS011;8926;49.720;6.576;2022-11-06T08:08:55;7.47;;;6.87;;
17614;SDS011;8926;49.720;6.576;2022-11-06T08:11:21;7.37;;;6.77;;
17614;SDS011;8926;49.720;6.576;2022-11-06T08:13:46;7.63;;;6.93;;
17614;SDS011;8926;49.720;6.576;2022-11-06T08:16:12;7.90;;;7.10;;
17614;SDS011;8926;49.720;6.576;2022-11-06T08:18:38;6.03;;;5.53;;
17614;SDS011;8926;49.720;6.576;2022-11-06T08:21:05;6.00;;;5.50;;
17614;SDS011;8926;49.720;6.576;2022-11-06T08:23:31;6.10;;;5.60;;
17614;SDS011;8926;49.720;6.576;2022-11-06T08:25:59;7.63;;;6.93;;
17614;SDS011;8926;49.720;6.576;2022-11-06T08:28:26;6.37;;;5.77;;
17614;SDS011;8926;49.720;6.576;2022-11-06T08:30:53;6.30;;;5.80;;
17614;SDS011;8926;49.720;6.576;2022-11-06T08:33:19;5.13;;;4.73;;
17614;SDS011;8926;49.720;6.576;2022-11-06T08:35:45;5.30;;;4.80;;
17614;SDS011;8926;49.720;6.576;2022-11-06T08:38:11;6.90;;;6.13;;
17614;SDS011;8926;49.720;6.576;2022-11-06T08:40:36;6.03;;;5.53;;
17614;SDS011;8926;49.720;6.576;2022-11-06T08:43:04;6.10;;;5.57;;
17614;SDS011;8926;49.720;6.576;2022-11-06T08:45:35;6.23;;;5.77;;
17614;SDS011;8926;49.720;6.576;2022-11-06T08:48:02;5.77;;;5.37;;
17614;SDS011;8926;49.720;6.576;2022-11-06T08:50:29;5.70;;;5.30;;
17614;SDS011;8926;49.720;6.576;2022-11-06T08:52:55;4.83;;;4.43;;
17614;SDS011;8926;49.720;6.576;2022-11-06T08:55:21;6.00;;;5.10;;
17614;SDS011;8926;49.720;6.576;2022-11-06T08:57:47;5.97;;;5.57;;
17614;SDS011;8926;49.720;6.576;2022-11-06T09:00:13;4.80;;;4.40;;
17614;SDS011;8926;49.720;6.576;2022-11-06T09:02:39;5.33;;;4.87;;
17614;SDS011;8926;49.720;6.576;2022-11-06T09:05:04;4.83;;;4.43;;
17614;SDS011;8926;49.720;6.576;2022-11-06T09:07:30;4.30;;;4.00;;
17614;SDS011;8926;49.720;6.576;2022-11-06T09:09:55;5.60;;;4.47;;
17614;SDS011;8926;49.720;6.576;2022-11-06T09:12:20;4.90;;;4.50;;
17614;SDS011;8926;49.720;6.576;2022-11-06T09:14:46;5.00;;;4.60;;
17614;SDS011;8926;49.720;6.576;2022-11-06T09:17:11;4.87;;;4.47;;
17614;SDS011;8926;49.720;6.576;2022-11-06T09:19:36;4.43;;;4.03;;
17614;SDS011;8926;49.720;6.576;2022-11-06T09:22:01;5.10;;;4.60;;
17614;SDS011;8926;49.720;6.576;2022-11-06T09:24:27;4.43;;;4.03;;
17614;SDS011;8926;49.720;6.576;2022-11-06T09:26:53;4.53;;;4.13;;
17614;SDS011;8926;49.720;6.576;2022-11-06T09:29:18;4.30;;;4.00;;
17614;SDS011;8926;49.720;6.576;2022-11-06T09:31:43;3.80;;;3.50;;
17614;SDS011;8926;49.720;6.576;2022-11-06T09:34:09;3.60;;;3.40;;
17614;SDS011;8926;49.720;6.576;2022-11-06T09:36:34;3.70;;;3.40;;
17614;SDS011;8926;49.720;6.576;2022-11-06T09:39:00;3.50;;;3.20;;
17614;SDS011;8926;49.720;6.576;2022-11-06T09:47:15;3.50;;;3.20;;
17614;SDS011;8926;49.720;6.576;2022-11-06T09:49:53;3.93;;;3.53;;
17614;SDS011;8926;49.720;6.576;2022-11-06T09:52:30;3.80;;;3.50;;
17614;SDS011;8926;49.720;6.576;2022-11-06T09:55:05;4.40;;;4.00;;
17614;SDS011;8926;49.720;6.576;2022-11-06T09:57:38;4.27;;;3.87;;
17614;SDS011;8926;49.720;6.576;2022-11-06T10:00:11;3.57;;;3.27;;
17614;SDS011;8926;49.720;6.576;2022-11-06T10:02:46;3.27;;;3.03;;
17614;SDS011;8926;49.720;6.576;2022-11-06T10:05:20;3.50;;;3.17;;
17614;SDS011;8926;49.720;6.576;2022-11-06T10:07:53;4.10;;;3.70;;
17614;SDS011;8926;49.720;6.576;2022-11-06T10:10:23;3.60;;;3.30;;
17614;SDS011;8926;49.720;6.576;2022-11-06T10:15:49;4.70;;;3.97;;
17614;SDS011;8926;49.720;6.576;2022-11-06T10:18:48;3.53;;;3.20;;
17614;SDS011;8926;49.720;6.576;2022-11-06T10:26:57;3.80;;;3.50;;
17614;SDS011;8926;49.720;6.576;2022-11-06T10:34:40;4.37;;;3.30;;
17614;SDS011;8926;49.720;6.576;2022-11-06T10:37:15;3.40;;;3.10;;
17614;SDS011;8926;49.720;6.576;2022-11-06T10:39:41;3.87;;;3.43;;
17614;SDS011;8926;49.720;6.576;2022-11-06T10:42:18;3.10;;;2.80;;
17614;SDS011;8926;49.720;6.576;2022-11-06T10:47:49;3.20;;;3.00;;
17614;SDS011;8926;49.720;6.576;2022-11-06T10:50:18;4.43;;;3.97;;
17614;SDS011;8926;49.720;6.576;2022-11-06T10:56:05;4.20;;;3.80;;
17614;SDS011;8926;49.720;6.576;2022-11-06T10:58:39;4.50;;;3.70;;
17614;SDS011;8926;49.720;6.576;2022-11-06T11:01:04;7.23;;;3.23;;
17614;SDS011;8926;49.720;6.576;2022-11-06T11:03:38;2.80;;;2.60;;
17614;SDS011;8926;49.720;6.576;2022-11-06T11:06:06;3.20;;;2.57;;
17614;SDS011;8926;49.720;6.576;2022-11-06T11:13:49;2.37;;;2.17;;
17614;SDS011;8926;49.720;6.576;2022-11-06T11:16:21;2.80;;;2.17;;
17614;SDS011;8926;49.720;6.576;2022-11-06T11:18:48;2.03;;;1.83;;
17614;SDS011;8926;49.720;6.576;2022-11-06T11:23:43;2.50;;;2.30;;
17614;SDS011;8926;49.720;6.576;2022-11-06T11:26:30;2.50;;;2.30;;
17614;SDS011;8926;49.720;6.576;2022-11-06T11:28:58;3.40;;;2.03;;
17614;SDS011;8926;49.720;6.576;2022-11-06T11:31:30;2.87;;;2.50;;
17614;SDS011;8926;49.720;6.576;2022-11-06T11:33:58;2.97;;;2.00;;
17614;SDS011;8926;49.720;6.576;2022-11-06T11:36:29;1.80;;;1.70;;
17614;SDS011;8926;49.720;6.576;2022-11-06T11:39:12;2.40;;;1.70;;
17614;SDS011;8926;49.720;6.576;2022-11-06T11:41:39;1.83;;;1.67;;
17614;SDS011;8926;49.720;6.576;2022-11-06T11:44:15;1.80;;;1.70;;
17614;SDS011;8926;49.720;6.576;2022-11-06T11:46:48;2.43;;;2.20;;
17614;SDS011;8926;49.720;6.576;2022-11-06T11:51:58;2.00;;;1.70;;
17614;SDS011;8926;49.720;6.576;2022-11-06T11:54:27;1.60;;;1.50;;
17614;SDS011;8926;49.720;6.576;2022-11-06T11:56:59;2.00;;;1.80;;
17614;SDS011;8926;49.720;6.576;2022-11-06T11:59:32;1.60;;;1.50;;
17614;SDS011;8926;49.720;6.576;2022-11-06T12:02:19;1.83;;;1.63;;
17614;SDS011;8926;49.720;6.576;2022-11-06T12:04:53;2.43;;;1.60;;
17614;SDS011;8926;49.720;6.576;2022-11-06T12:07:24;1.93;;;1.60;;
17614;SDS011;8926;49.720;6.576;2022-11-06T12:09:51;2.43;;;2.20;;
17614;SDS011;8926;49.720;6.576;2022-11-06T12:12:18;2.20;;;2.03;;
17614;SDS011;8926;49.720;6.576;2022-11-06T12:14:47;2.03;;;1.83;;
17614;SDS011;8926;49.720;6.576;2022-11-06T12:17:28;1.87;;;1.50;;
17614;SDS011;8926;49.720;6.576;2022-11-06T12:19:56;2.07;;;1.87;;
17614;SDS011;8926;49.720;6.576;2022-11-06T12:22:25;2.10;;;1.50;;
17614;SDS011;8926;49.720;6.576;2022-11-06T12:27:40;2.57;;;1.97;;
17614;SDS011;8926;49.720;6.576;2022-11-06T12:30:11;2.83;;;1.47;;
17614;SDS011;8926;49.720;6.576;2022-11-06T12:35:36;1.57;;;1.47;;
17614;SDS011;8926;49.720;6.576;2022-11-06T12:39:03;1.83;;;1.70;;
17614;SDS011;8926;49.720;6.576;2022-11-06T12:43:39;2.00;;;1.57;;
17614;SDS011;8926;49.720;6.576;2022-11-06T12:46:19;2.00;;;1.50;;
17614;SDS011;8926;49.720;6.576;2022-11-06T12:49:02;1.67;;;1.23;;
17614;SDS011;8926;49.720;6.576;2022-11-06T13:00:04;1.87;;;1.63;;
17614;SDS011;8926;49.720;6.576;2022-11-06T13:02:55;2.10;;;1.90;;
17614;SDS011;8926;49.720;6.576;2022-11-06T13:05:34;2.13;;;2.03;;
17614;SDS011;8926;49.720;6.576;2022-11-06T13:13:57;1.63;;;1.47;;
17614;SDS011;8926;49.720;6.576;2022-11-06T13:19:14;4.47;;;2.43;;
17614;SDS011;8926;49.720;6.576;2022-11-06T13:27:09;2.50;;;2.30;;
17614;SDS011;8926;49.720;6.576;2022-11-06T13:29:44;2.27;;;2.07;;
17614;SDS011;8926;49.720;6.576;2022-11-06T13:32:12;5.20;;;2.27;;
17614;SDS011;8926;49.720;6.576;2022-11-06T13:34:41;2.50;;;2.30;;
17614;SDS011;8926;49.720;6.576;2022-11-06T13:37:13;1.83;;;1.73;;
17614;SDS011;8926;49.720;6.576;2022-11-06T13:39:43;2.10;;;2.00;;
17614;SDS011;8926;49.720;6.576;2022-11-06T13:42:19;2.80;;;2.23;;
17614;SDS011;8926;49.720;6.576;2022-11-06T13:44:48;2.30;;;2.10;;
17614;SDS011;8926;49.720;6.576;2022-11-06T13:47:17;2.10;;;2.00;;
17614;SDS011;8926;49.720;6.576;2022-11-06T13:53:16;3.30;;;2.33;;
17614;SDS011;8926;49.720;6.576;2022-11-06T13:55:24;4.30;;;2.20;;
17614;SDS011;8926;49.720;6.576;2022-11-06T14:03:39;3.00;;;2.80;;
17614;SDS011;8926;49.720;6.576;2022-11-06T14:06:20;3.10;;;2.80;;
17614;SDS011;8926;49.720;6.576;2022-11-06T14:09:04;3.40;;;3.10;;
17614;SDS011;8926;49.720;6.576;2022-11-06T14:11:37;4.03;;;3.73;;
17614;SDS011;8926;49.720;6.576;2022-11-06T14:14:08;5.73;;;5.20;;
17614;SDS011;8926;49.720;6.576;2022-11-06T14:16:41;4.60;;;4.20;;
17614;SDS011;8926;49.720;6.576;2022-11-06T14:19:21;3.47;;;3.17;;
17614;SDS011;8926;49.720;6.576;2022-11-06T14:24:39;2.83;;;2.50;;
17614;SDS011;8926;49.720;6.576;2022-11-06T14:27:10;2.40;;;2.20;;
17614;SDS011;8926;49.720;6.576;2022-11-06T14:29:57;1.70;;;1.60;;
17614;SDS011;8926;49.720;6.576;2022-11-06T14:32:33;1.73;;;1.63;;
17614;SDS011;8926;49.720;6.576;2022-11-06T14:37:52;2.10;;;2.00;;
17614;SDS011;8926;49.720;6.576;2022-11-06T14:40:33;2.40;;;2.20;;
17614;SDS011;8926;49.720;6.576;2022-11-06T14:43:00;2.10;;;1.90;;
17614;SDS011;8926;49.720;6.576;2022-11-06T14:45:35;2.00;;;1.90;;
17614;SDS011;8926;49.720;6.576;2022-11-06T14:48:00;2.07;;;1.97;;
17614;SDS011;8926;49.720;6.576;2022-11-06T14:50:27;2.43;;;1.83;;
17614;SDS011;8926;49.720;6.576;2022-11-06T14:53:04;2.00;;;1.90;;
17614;SDS011;8926;49.720;6.576;2022-11-06T14:55:44;2.30;;;2.10;;
17614;SDS011;8926;49.720;6.576;2022-11-06T14:58:21;2.00;;;1.80;;
17614;SDS011;8926;49.720;6.576;2022-11-06T15:00:58;2.33;;;2.23;;
17614;SDS011;8926;49.720;6.576;2022-11-06T15:03:26;2.13;;;2.03;;
17614;SDS011;8926;49.720;6.576;2022-11-06T15:05:58;2.07;;;1.97;;
17614;SDS011;8926;49.720;6.576;2022-11-06T15:11:46;1.87;;;1.77;;
17614;SDS011;8926;49.720;6.576;2022-11-06T15:16:23;2.07;;;1.87;;
17614;SDS011;8926;49.720;6.576;2022-11-06T15:18:51;2.00;;;1.90;;
17614;SDS011;8926;49.720;6.576;2022-11-06T15:21:21;1.87;;;1.70;;
17614;SDS011;8926;49.720;6.576;2022-11-06T15:23:54;2.60;;;2.27;;
17614;SDS011;8926;49.720;6.576;2022-11-06T15:26:31;1.90;;;1.80;;
17614;SDS011;8926;49.720;6.576;2022-11-06T15:31:42;2.20;;;2.10;;
17614;SDS011;8926;49.720;6.576;2022-11-06T15:34:25;2.43;;;2.23;;
17614;SDS011;8926;49.720;6.576;2022-11-06T15:37:12;2.10;;;2.00;;
17614;SDS011;8926;49.720;6.576;2022-11-06T15:39:52;2.10;;;1.97;;
17614;SDS011;8926;49.720;6.576;2022-11-06T15:42:22;3.17;;;2.97;;
17614;SDS011;8926;49.720;6.576;2022-11-06T15:44:49;2.77;;;2.57;;
17614;SDS011;8926;49.720;6.576;2022-11-06T15:47:26;2.40;;;2.20;;
17614;SDS011;8926;49.720;6.576;2022-11-06T15:52:36;2.10;;;2.00;;
17614;SDS011;8926;49.720;6.576;2022-11-06T15:55:02;2.90;;;1.90;;
17614;SDS011;8926;49.720;6.576;2022-11-06T15:57:27;2.20;;;2.10;;
17614;SDS011;8926;49.720;6.576;2022-11-06T16:00:06;1.90;;;1.80;;
17614;SDS011;8926;49.720;6.576;2022-11-06T16:02:48;2.00;;;1.90;;
17614;SDS011;8926;49.720;6.576;2022-11-06T16:05:36;2.00;;;1.90;;
17614;SDS011;8926;49.720;6.576;2022-11-06T16:08:02;2.73;;;2.57;;
17614;SDS011;8926;49.720;6.576;2022-11-06T16:10:30;2.50;;;2.30;;
17614;SDS011;8926;49.720;6.576;2022-11-06T16:12:56;2.10;;;2.00;;
17614;SDS011;8926;49.720;6.576;2022-11-06T16:18:29;2.60;;;2.40;;
17614;SDS011;8926;49.720;6.576;2022-11-06T16:23:27;2.70;;;2.50;;
17614;SDS011;8926;49.720;6.576;2022-11-06T16:26:03;2.27;;;2.10;;
17614;SDS011;8926;49.720;6.576;2022-11-06T16:28:31;3.37;;;2.80;;
17614;SDS011;8926;49.720;6.576;2022-11-06T16:31:04;3.03;;;2.60;;
17614;SDS011;8926;49.720;6.576;2022-11-06T16:33:32;2.70;;;2.50;;
17614;SDS011;8926;49.720;6.576;2022-11-06T16:36:04;6.23;;;2.80;;
17614;SDS011;8926;49.720;6.576;2022-11-06T16:38:36;2.77;;;2.30;;
17614;SDS011;8926;49.720;6.576;2022-11-06T16:41:03;3.00;;;2.77;;
17614;SDS011;8926;49.720;6.576;2022-11-06T16:43:30;4.43;;;2.73;;
17614;SDS011;8926;49.720;6.576;2022-11-06T16:45:59;3.03;;;2.83;;
17614;SDS011;8926;49.720;6.576;2022-11-06T16:48:36;2.87;;;2.53;;
17614;SDS011;8926;49.720;6.576;2022-11-06T16:51:10;3.33;;;3.03;;
17614;SDS011;8926;49.720;6.576;2022-11-06T16:53:47;3.27;;;2.93;;
17614;SDS011;8926;49.720;6.576;2022-11-06T16:56:20;3.00;;;2.80;;
17614;SDS011;8926;49.720;6.576;2022-11-06T16:58:49;3.20;;;2.83;;
17614;SDS011;8926;49.720;6.576;2022-11-06T17:01:19;2.60;;;2.40;;
17614;SDS011;8926;49.720;6.576;2022-11-06T17:03:45;3.13;;;2.93;;
17614;SDS011;8926;49.720;6.576;2022-11-06T17:06:19;3.10;;;2.90;;
17614;SDS011;8926;49.720;6.576;2022-11-06T17:08:55;2.80;;;2.60;;
17614;SDS011;8926;49.720;6.576;2022-11-06T17:11:22;2.83;;;2.63;;
17614;SDS011;8926;49.720;6.576;2022-11-06T17:13:48;2.73;;;2.63;;
17614;SDS011;8926;49.720;6.576;2022-11-06T17:16:15;3.83;;;3.20;;
17614;SDS011;8926;49.720;6.576;2022-11-06T17:18:48;3.27;;;2.73;;
17614;SDS011;8926;49.720;6.576;2022-11-06T17:21:14;2.90;;;2.70;;
17614;SDS011;8926;49.720;6.576;2022-11-06T17:23:50;4.30;;;3.90;;
17614;SDS011;8926;49.720;6.576;2022-11-06T17:26:29;3.87;;;3.57;;